Time;durP1;ratioP1;P1;durP2;ratioP2;P2;SDS_P1;SDS_P2;PMS_P1;PMS_P2;Temp;Humidity;BMP_temperature;BMP_pressure;BME280_temperature;BME280_humidity;BME280_pressure;Samples;Min_cycle;Max_cycle;Signal;HPM_P1;HPM_P2
2022/08/16 00:00:44;;;;;;;5.10;4.10;;;;;;;28.81;45.97;100076.38;104494;1307;61062;-82
2022/08/16 00:03:10;;;;;;;5.30;4.00;;;;;;;28.82;45.96;100077.05;104606;1309;61303;-82
2022/08/16 00:05:35;;;;;;;6.20;4.30;;;;;;;28.81;45.92;100081.44;104584;1309;61403;-82
2022/08/16 00:08:01;;;;;;;5.20;4.10;;;;;;;28.81;45.89;100084.94;104605;1309;61312;-81
2022/08/16 00:10:28;;;;;;;5.60;4.10;;;;;;;28.81;45.91;100085.81;104468;1309;61285;-81
2022/08/16 00:12:54;;;;;;;5.50;3.90;;;;;;;28.81;46.17;100084.60;104467;1309;61267;-81
2022/08/16 00:15:24;;;;;;;5.30;4.10;;;;;;;28.81;45.99;100085.82;104634;1307;61272;-81
2022/08/16 00:17:49;;;;;;;4.90;3.80;;;;;;;28.80;46.02;100088.64;104458;1308;75911;-81
2022/08/16 00:20:15;;;;;;;5.40;4.20;;;;;;;28.80;46.04;100092.61;104456;1309;61295;-81
2022/08/16 00:22:42;;;;;;;4.80;4.00;;;;;;;28.81;45.83;100094.41;104522;1309;61251;-82
2022/08/16 00:25:10;;;;;;;5.40;4.20;;;;;;;28.80;45.95;100098.63;104620;1308;61319;-81
2022/08/16 00:27:35;;;;;;;5.20;4.30;;;;;;;28.80;46.06;100099.55;104631;1308;76007;-82
2022/08/16 00:30:01;;;;;;;6.40;4.50;;;;;;;28.80;46.16;100098.30;104559;1309;61255;-82
2022/08/16 00:32:27;;;;;;;5.70;4.10;;;;;;;28.80;45.95;100096.45;104579;1308;61397;-81
2022/08/16 00:34:52;;;;;;;4.80;4.10;;;;;;;28.80;45.98;100094.83;104509;1309;61308;-81
2022/08/16 00:37:22;;;;;;;4.80;4.00;;;;;;;28.80;45.85;100092.35;104528;1307;61277;-81
2022/08/16 00:39:48;;;;;;;4.80;4.00;;;;;;;28.80;45.67;100098.16;104533;1309;61560;-81
2022/08/16 00:42:14;;;;;;;5.90;4.30;;;;;;;28.79;45.98;100092.93;104587;1308;61217;-81
2022/08/16 00:44:39;;;;;;;5.60;4.30;;;;;;;28.79;46.09;100093.51;104453;1309;61158;-81
2022/08/16 00:47:07;;;;;;;6.70;4.20;;;;;;;28.79;45.90;100097.85;104395;1309;61284;-81
2022/08/16 00:49:34;;;;;;;5.00;4.10;;;;;;;28.78;45.95;100093.75;104630;1309;61233;-81
2022/08/16 00:51:59;;;;;;;5.00;4.00;;;;;;;28.78;45.72;100094.49;104567;1309;59287;-81
2022/08/16 00:54:28;;;;;;;5.20;4.20;;;;;;;28.78;45.99;100092.48;104597;1309;61291;-81
2022/08/16 00:56:54;;;;;;;5.00;4.20;;;;;;;28.79;45.96;100090.28;104585;1309;75728;-81
2022/08/16 00:59:21;;;;;;;4.80;3.90;;;;;;;28.78;46.00;100083.80;104449;1309;61246;-81
2022/08/16 01:01:46;;;;;;;4.60;4.10;;;;;;;28.78;46.00;100081.84;104610;1308;61286;-82
2022/08/16 01:04:13;;;;;;;5.40;4.10;;;;;;;28.78;46.06;100081.31;104490;1309;61264;-82
2022/08/16 01:06:38;;;;;;;5.30;3.90;;;;;;;28.78;45.96;100079.11;104600;1309;61230;-81
2022/08/16 01:09:05;;;;;;;5.20;4.10;;;;;;;28.77;45.89;100082.45;104538;1309;61416;-82
2022/08/16 01:11:32;;;;;;;5.70;4.20;;;;;;;28.77;46.06;100084.24;104535;1310;61473;-81
2022/08/16 01:14:01;;;;;;;5.10;4.00;;;;;;;28.77;45.93;100088.05;104574;1308;61274;-81
2022/08/16 01:16:27;;;;;;;5.10;3.80;;;;;;;28.77;45.95;100088.22;104692;1309;75728;-81
2022/08/16 01:19:09;;;;;;;4.90;3.80;;;;;;;28.78;45.87;100091.95;104626;1309;61240;-81
2022/08/16 01:21:49;;;;;;;5.10;3.80;;;;;;;28.78;45.98;100093.98;104524;1309;61326;-81
2022/08/16 01:24:40;;;;;;;5.10;3.80;;;;;;;28.78;46.08;100094.93;104723;1307;72649;-81
2022/08/16 01:27:28;;;;;;;5.50;4.20;;;;;;;28.77;46.12;100090.23;104343;1313;74956;-82
2022/08/16 01:30:02;;;;;;;5.70;3.80;;;;;;;28.77;46.16;100085.36;104224;1315;62313;-82
2022/08/16 01:32:29;;;;;;;5.30;4.00;;;;;;;28.78;46.00;100079.33;104252;1313;61452;-82
2022/08/16 01:34:55;;;;;;;5.30;3.80;;;;;;;28.78;46.11;100080.60;104321;1313;73984;-82
2022/08/16 01:37:20;;;;;;;4.60;3.40;;;;;;;28.78;46.08;100084.76;104257;1313;61252;-82
2022/08/16 01:39:46;;;;;;;4.90;3.80;;;;;;;28.77;45.88;100085.40;104343;1313;61266;-81
2022/08/16 01:42:11;;;;;;;5.20;3.80;;;;;;;28.77;46.05;100081.73;104277;1315;61372;-81
2022/08/16 01:44:37;;;;;;;4.80;4.00;;;;;;;28.77;46.03;100074.71;104358;1313;61248;-82
2022/08/16 01:47:04;;;;;;;4.90;3.80;;;;;;;28.77;46.08;100074.16;104298;1313;72819;-81
2022/08/16 01:49:32;;;;;;;5.00;4.00;;;;;;;28.76;45.96;100075.48;104215;1313;61909;-81
2022/08/16 01:52:00;;;;;;;4.70;3.80;;;;;;;28.76;46.08;100072.43;104288;1313;61262;-81
2022/08/16 01:54:26;;;;;;;5.10;4.00;;;;;;;28.76;46.17;100071.01;104277;1313;61491;-81
2022/08/16 01:56:52;;;;;;;4.80;4.00;;;;;;;28.75;46.06;100070.88;104240;1313;61356;-81
2022/08/16 01:59:18;;;;;;;5.00;4.10;;;;;;;28.75;46.19;100072.17;104256;1313;61312;-81
2022/08/16 02:01:45;;;;;;;5.10;3.90;;;;;;;28.75;45.89;100072.71;104294;1313;61304;-81
2022/08/16 02:04:10;;;;;;;4.80;3.90;;;;;;;28.75;45.94;100075.13;104379;1309;61248;-81
2022/08/16 02:06:37;;;;;;;4.30;3.60;;;;;;;28.75;45.87;100075.28;104491;1309;61378;-81
2022/08/16 02:09:03;;;;;;;5.30;3.90;;;;;;;28.75;45.80;100071.32;104576;1308;61417;-81
2022/08/16 02:11:28;;;;;;;4.80;4.00;;;;;;;28.75;45.72;100070.73;104584;1308;61272;-81
2022/08/16 02:13:54;;;;;;;4.60;3.90;;;;;;;28.74;45.92;100071.52;104565;1309;61235;-81
2022/08/16 02:16:20;;;;;;;5.10;3.80;;;;;;;28.74;46.04;100075.53;104617;1308;61279;-81
2022/08/16 02:18:46;;;;;;;4.30;3.60;;;;;;;28.74;45.89;100076.63;104581;1308;61263;-81
2022/08/16 02:21:11;;;;;;;4.90;3.80;;;;;;;28.74;45.96;100069.39;104456;1309;61284;-82
2022/08/16 02:23:37;;;;;;;6.20;4.00;;;;;;;28.74;45.80;100070.52;104566;1308;61298;-81
2022/08/16 02:26:03;;;;;;;4.30;3.40;;;;;;;28.74;45.97;100076.70;104474;1309;61287;-81
2022/08/16 02:28:29;;;;;;;5.20;4.00;;;;;;;28.74;45.91;100081.77;104425;1308;61291;-81
2022/08/16 02:30:56;;;;;;;4.90;3.90;;;;;;;28.74;45.99;100079.95;104610;1309;61363;-82
2022/08/16 02:33:22;;;;;;;5.30;3.80;;;;;;;28.73;45.93;100081.45;104576;1309;75746;-82
2022/08/16 02:35:48;;;;;;;5.80;4.10;;;;;;;28.73;46.03;100076.61;104551;1309;61179;-82
2022/08/16 02:38:13;;;;;;;4.80;3.70;;;;;;;28.73;46.17;100074.09;104539;1309;61371;-82
2022/08/16 02:40:39;;;;;;;5.10;4.00;;;;;;;28.72;46.20;100073.41;104530;1309;61348;-82
2022/08/16 02:43:05;;;;;;;5.20;3.90;;;;;;;28.73;46.15;100073.68;104533;1309;61282;-82
2022/08/16 02:45:31;;;;;;;4.60;4.00;;;;;;;28.73;46.05;100073.72;104545;1308;61257;-82
2022/08/16 02:47:57;;;;;;;4.80;3.60;;;;;;;28.72;45.97;100072.13;104627;1308;62518;-81
2022/08/16 02:50:24;;;;;;;5.40;4.00;;;;;;;28.72;46.29;100078.30;104627;1309;61539;-81
2022/08/16 02:52:49;;;;;;;5.50;4.00;;;;;;;28.73;46.19;100082.05;104512;1309;61172;-81
2022/08/16 02:55:15;;;;;;;4.70;3.70;;;;;;;28.72;46.22;100081.73;104458;1309;61404;-81
2022/08/16 02:57:40;;;;;;;5.20;4.10;;;;;;;28.73;46.04;100077.91;104493;1309;61280;-81
2022/08/16 03:00:08;;;;;;;5.60;4.10;;;;;;;28.72;46.04;100087.02;104522;1309;61301;-81
2022/08/16 03:02:35;;;;;;;5.00;3.70;;;;;;;28.72;46.13;100085.55;104519;1308;61351;-82
2022/08/16 03:05:01;;;;;;;4.60;3.80;;;;;;;28.72;46.03;100088.28;103297;1309;1666191;-81
2022/08/16 03:07:26;;;;;;;4.90;3.90;;;;;;;28.72;46.19;100087.94;104572;1309;61273;-80
2022/08/16 03:09:52;;;;;;;5.30;4.10;;;;;;;28.72;46.13;100093.73;104412;1309;61320;-80
2022/08/16 03:12:18;;;;;;;5.20;3.80;;;;;;;28.72;46.03;100095.58;104624;1308;61383;-81
2022/08/16 03:14:45;;;;;;;4.80;3.70;;;;;;;28.72;46.05;100097.71;104445;1309;72857;-81
2022/08/16 03:17:10;;;;;;;5.20;3.90;;;;;;;28.72;46.09;100103.02;104458;1309;61330;-81
2022/08/16 03:19:36;;;;;;;6.00;4.40;;;;;;;28.71;46.03;100101.04;104494;1309;61250;-82
2022/08/16 03:22:02;;;;;;;4.80;3.80;;;;;;;28.71;46.16;100099.41;104528;1309;61285;-81
2022/08/16 03:24:27;;;;;;;4.60;3.60;;;;;;;28.71;46.20;100096.23;104617;1309;61287;-81
2022/08/16 03:26:53;;;;;;;5.60;4.20;;;;;;;28.71;46.32;100096.70;104472;1309;61240;-81
2022/08/16 03:29:19;;;;;;;6.50;4.10;;;;;;;28.71;46.31;100090.39;104632;1308;61267;-81
2022/08/16 03:31:44;;;;;;;6.00;4.40;;;;;;;28.71;46.28;100090.21;104525;1309;61297;-82
2022/08/16 03:34:10;;;;;;;5.50;4.50;;;;;;;28.71;46.18;100084.11;104579;1308;61346;-81
2022/08/16 03:36:35;;;;;;;6.60;4.40;;;;;;;28.71;46.26;100089.88;104605;1308;61268;-81
2022/08/16 03:39:01;;;;;;;6.70;4.30;;;;;;;28.71;46.50;100100.73;104632;1309;61349;-81
2022/08/16 03:41:27;;;;;;;6.60;4.80;;;;;;;28.70;46.29;100101.15;104520;1309;61841;-81
2022/08/16 03:43:55;;;;;;;8.50;5.50;;;;;;;28.71;46.42;100099.69;104593;1309;61551;-81
2022/08/16 03:46:21;;;;;;;;;;;;;;;28.70;46.37;100103.77;104604;1309;61160;-81
2022/08/16 03:48:48;;;;;;;8.10;5.20;;;;;;;28.67;46.19;100113.50;104616;1307;61271;-81
2022/08/16 03:51:13;;;;;;;9.00;5.90;;;;;;;28.68;46.12;100111.07;104538;1309;61272;-81
2022/08/16 03:53:40;;;;;;;6.70;4.80;;;;;;;28.67;46.26;100112.04;104562;1309;59010;-82
2022/08/16 03:56:06;;;;;;;7.40;5.00;;;;;;;28.67;46.24;100116.75;104632;1308;61394;-82
2022/08/16 03:58:32;;;;;;;11.00;6.30;;;;;;;28.67;46.11;100107.34;104508;1309;61239;-82
2022/08/16 04:00:58;;;;;;;12.30;7.10;;;;;;;28.67;45.94;100113.19;104600;1309;61406;-82
2022/08/16 04:03:24;;;;;;;12.00;6.50;;;;;;;28.66;46.12;100109.63;104458;1309;61321;-81
2022/08/16 04:05:50;;;;;;;10.80;6.20;;;;;;;28.66;45.98;100106.23;104588;1309;61163;-82
2022/08/16 04:08:18;;;;;;;7.30;5.10;;;;;;;28.65;45.94;100108.10;104638;1308;59249;-82
2022/08/16 04:10:43;;;;;;;9.20;6.50;;;;;;;28.65;45.74;100108.45;104512;1309;73850;-81
2022/08/16 04:13:09;;;;;;;11.60;6.00;;;;;;;28.65;45.64;100100.30;104465;1308;62470;-82
2022/08/16 04:15:35;;;;;;;11.80;6.50;;;;;;;28.65;45.85;100102.15;104601;1308;61237;-82
2022/08/16 04:18:01;;;;;;;11.10;6.80;;;;;;;28.65;45.50;100100.02;104481;1309;61284;-82
2022/08/16 04:20:27;;;;;;;11.70;6.50;;;;;;;28.65;45.45;100098.21;104612;1309;61729;-81
2022/08/16 04:22:53;;;;;;;10.60;6.40;;;;;;;28.65;45.37;100096.59;104574;1308;61259;-83
2022/08/16 04:25:18;;;;;;;11.70;7.20;;;;;;;28.64;45.51;100095.93;104563;1309;61364;-81
2022/08/16 04:27:44;;;;;;;11.20;6.80;;;;;;;28.64;45.50;100094.66;104533;1309;61073;-81
2022/08/16 04:30:12;;;;;;;12.90;6.40;;;;;;;28.64;45.32;100095.59;104626;1309;61275;-81
2022/08/16 04:32:38;;;;;;;11.10;6.30;;;;;;;28.64;45.25;100098.67;104594;1308;72821;-81
2022/08/16 04:35:05;;;;;;;10.60;6.80;;;;;;;28.63;45.22;100100.17;104561;1308;61087;-82
2022/08/16 04:37:31;;;;;;;11.90;7.20;;;;;;;28.63;45.32;100097.05;104620;1308;61173;-81
2022/08/16 04:39:57;;;;;;;13.80;6.90;;;;;;;28.64;45.32;100097.24;104565;1309;61310;-81
2022/08/16 04:42:23;;;;;;;8.40;5.90;;;;;;;28.63;45.12;100095.07;104432;1309;61703;-82
2022/08/16 04:44:48;;;;;;;11.80;6.60;;;;;;;28.64;45.15;100096.67;104493;1309;61301;-81
2022/08/16 04:47:14;;;;;;;11.30;7.20;;;;;;;28.64;45.18;100100.49;104612;1308;61410;-81
2022/08/16 04:49:40;;;;;;;10.90;6.80;;;;;;;28.63;45.05;100103.95;104613;1308;61390;-81
2022/08/16 04:52:06;;;;;;;10.70;6.30;;;;;;;28.63;45.03;100101.04;104638;1309;61431;-81
2022/08/16 04:54:31;;;;;;;11.20;6.90;;;;;;;28.63;45.09;100105.98;104520;1309;61240;-82
2022/08/16 04:56:57;;;;;;;11.60;6.60;;;;;;;28.64;44.98;100105.19;104582;1308;61295;-81
2022/08/16 04:59:23;;;;;;;12.60;6.90;;;;;;;28.64;44.95;100101.75;104491;1309;61269;-81
2022/08/16 05:01:48;;;;;;;9.50;6.00;;;;;;;28.63;44.98;100097.80;104528;1309;61305;-82
2022/08/16 05:04:14;;;;;;;12.10;6.70;;;;;;;28.63;45.02;100102.31;104528;1309;61412;-82
2022/08/16 05:06:39;;;;;;;10.30;6.60;;;;;;;28.64;44.82;100104.66;104589;1309;61267;-82
2022/08/16 05:09:06;;;;;;;12.80;6.60;;;;;;;28.63;44.89;100100.89;104452;1309;61313;-82
2022/08/16 05:11:32;;;;;;;13.80;6.50;;;;;;;28.64;44.83;100105.19;104538;1308;61151;-82
2022/08/16 05:14:06;;;;;;;9.70;6.60;;;;;;;28.63;44.92;100104.67;104451;1309;61151;-82
2022/08/16 05:16:32;;;;;;;11.00;6.70;;;;;;;28.64;44.61;100094.86;104503;1309;72860;-82
2022/08/16 05:18:58;;;;;;;9.60;6.40;;;;;;;28.64;44.82;100091.92;104468;1307;61352;-81
2022/08/16 05:21:24;;;;;;;9.90;6.40;;;;;;;28.64;44.86;100091.17;104616;1308;61279;-82
2022/08/16 05:23:51;;;;;;;10.10;6.50;;;;;;;28.65;44.68;100085.90;104506;1309;61441;-82
2022/08/16 05:26:16;;;;;;;10.60;6.60;;;;;;;28.66;44.88;100085.98;104306;1309;61222;-81
2022/08/16 05:28:42;;;;;;;11.00;6.50;;;;;;;28.66;44.74;100082.67;104417;1309;61298;-81
2022/08/16 05:31:08;;;;;;;10.20;6.40;;;;;;;28.66;44.64;100083.35;104403;1308;61320;-81
2022/08/16 05:33:33;;;;;;;8.60;6.10;;;;;;;28.68;44.60;100093.54;104303;1310;61460;-81
2022/08/16 05:35:59;;;;;;;8.80;6.10;;;;;;;28.68;44.52;100093.66;104293;1308;61301;-81
2022/08/16 05:38:26;;;;;;;9.00;6.20;;;;;;;28.69;44.76;100095.02;104425;1309;60934;-81
2022/08/16 05:40:58;;;;;;;9.40;6.50;;;;;;;28.69;44.51;100090.67;104493;1309;75584;-81
2022/08/16 05:43:24;;;;;;;11.90;6.80;;;;;;;28.68;44.29;100090.06;104490;1309;61526;-81
2022/08/16 05:45:49;;;;;;;12.00;6.60;;;;;;;28.67;44.46;100092.27;104481;1309;62004;-82
2022/08/16 05:48:15;;;;;;;10.50;6.60;;;;;;;28.67;44.53;100093.60;104507;1308;61308;-80
2022/08/16 05:50:41;;;;;;;11.00;6.60;;;;;;;28.67;44.59;100097.91;104476;1309;61296;-81
2022/08/16 05:53:06;;;;;;;9.80;6.90;;;;;;;28.66;44.29;100102.35;104403;1309;61399;-81
2022/08/16 05:55:32;;;;;;;9.40;6.30;;;;;;;28.66;44.22;100101.81;104513;1308;62479;-81
2022/08/16 05:57:57;;;;;;;10.50;6.10;;;;;;;28.67;44.28;100103.58;104310;1309;61271;-81
2022/08/16 06:00:23;;;;;;;12.50;5.90;;;;;;;28.67;44.40;100101.44;104296;1309;61376;-81
2022/08/16 06:02:50;;;;;;;8.90;5.50;;;;;;;28.68;44.47;100096.25;104477;1309;61387;-82
2022/08/16 06:05:15;;;;;;;8.40;6.20;;;;;;;28.67;44.37;100100.08;104419;1308;61439;-81
2022/08/16 06:07:41;;;;;;;9.20;5.70;;;;;;;28.68;44.35;100102.73;104373;1309;61288;-81
2022/08/16 06:10:07;;;;;;;7.80;6.00;;;;;;;28.69;44.12;100106.80;104373;1309;61288;-82
2022/08/16 06:12:33;;;;;;;8.10;6.10;;;;;;;28.69;44.23;100110.39;104448;1309;59843;-81
2022/08/16 06:15:01;;;;;;;11.40;6.40;;;;;;;28.69;44.20;100108.36;104282;1309;76280;-81
2022/08/16 06:17:28;;;;;;;;;;;;;;;28.70;44.04;100107.02;104983;1309;61346;-81
2022/08/16 06:19:53;;;;;;;10.40;5.80;;;;;;;28.68;44.29;100102.68;104376;1309;61294;-81
2022/08/16 06:22:19;;;;;;;10.00;6.60;;;;;;;28.69;44.05;100094.77;104460;1309;61393;-82
2022/08/16 06:24:45;;;;;;;8.60;6.30;;;;;;;28.68;44.20;100093.46;104410;1309;61363;-81
2022/08/16 06:27:10;;;;;;;10.30;6.50;;;;;;;28.68;44.12;100093.08;104656;1309;61415;-81
2022/08/16 06:29:36;;;;;;;9.80;6.00;;;;;;;28.69;43.97;100096.47;104386;1309;61261;-81
2022/08/16 06:32:02;;;;;;;8.80;6.00;;;;;;;28.69;44.08;100101.48;104388;1308;61839;-81
2022/08/16 06:34:28;;;;;;;8.20;6.10;;;;;;;28.70;43.95;100100.05;104253;1310;61304;-81
2022/08/16 06:36:53;;;;;;;7.70;6.10;;;;;;;28.71;44.08;100101.32;104176;1310;61377;-82
2022/08/16 06:39:19;;;;;;;8.40;5.90;;;;;;;28.71;43.92;100101.79;104444;1309;61267;-82
2022/08/16 06:41:45;;;;;;;9.80;5.90;;;;;;;28.72;43.90;100105.89;104521;1309;61394;-82
2022/08/16 06:44:10;;;;;;;8.50;6.00;;;;;;;28.72;43.99;100113.13;104509;1309;61289;-81
2022/08/16 06:46:36;;;;;;;12.00;6.40;;;;;;;28.71;44.02;100116.04;104534;1309;61314;-82
2022/08/16 06:49:09;;;;;;;11.90;6.20;;;;;;;28.73;43.86;100114.67;104492;1309;75649;-82
2022/08/16 06:51:35;;;;;;;10.60;6.80;;;;;;;28.73;43.70;100111.56;104498;1309;61118;-82
2022/08/16 06:54:03;;;;;;;8.10;6.10;;;;;;;28.73;43.78;100114.81;104491;1309;61168;-82
2022/08/16 06:56:28;;;;;;;8.60;6.10;;;;;;;28.73;43.77;100120.02;104502;1309;73615;-82
2022/08/16 06:58:55;;;;;;;8.00;5.70;;;;;;;28.73;43.86;100114.83;104550;1308;61176;-82
2022/08/16 07:01:20;;;;;;;8.20;5.60;;;;;;;28.73;43.75;100115.73;104481;1308;61266;-82
2022/08/16 07:03:46;;;;;;;8.10;6.40;;;;;;;28.72;43.86;100119.75;104492;1309;61281;-83
2022/08/16 07:06:12;;;;;;;8.60;6.00;;;;;;;28.73;43.80;100120.38;104438;1309;61256;-82
2022/08/16 07:08:37;;;;;;;10.70;6.70;;;;;;;28.73;43.91;100122.35;104338;1309;61260;-82
2022/08/16 07:11:03;;;;;;;9.90;5.70;;;;;;;28.74;43.68;100117.43;104293;1309;61422;-82
2022/08/16 07:13:30;;;;;;;7.30;6.00;;;;;;;28.73;43.63;100117.64;104572;1309;61281;-82
2022/08/16 07:15:58;;;;;;;9.50;5.90;;;;;;;28.75;43.64;100115.86;104968;1309;59310;-83
2022/08/16 07:18:24;;;;;;;9.70;6.20;;;;;;;28.75;43.60;100119.21;104522;1309;72777;-82
2022/08/16 07:20:50;;;;;;;8.50;5.40;;;;;;;28.76;43.70;100113.75;104401;1309;61998;-82
2022/08/16 07:23:15;;;;;;;9.90;5.80;;;;;;;28.77;43.81;100116.53;104293;1309;61334;-82
2022/08/16 07:25:41;;;;;;;6.70;5.20;;;;;;;28.78;43.79;100117.86;104325;1308;61204;-82
2022/08/16 07:28:07;;;;;;;6.60;5.40;;;;;;;28.79;43.72;100126.10;104286;1309;61366;-82
2022/08/16 07:30:33;;;;;;;8.20;6.00;;;;;;;28.80;43.92;100126.33;104259;1309;61374;-82
2022/08/16 07:32:59;;;;;;;6.60;5.60;;;;;;;28.81;43.72;100121.45;104362;1308;61484;-81
2022/08/16 07:35:24;;;;;;;6.60;5.60;;;;;;;28.81;44.05;100121.09;104412;1308;61208;-81
2022/08/16 07:37:50;;;;;;;8.70;5.60;;;;;;;28.83;43.82;100116.95;104327;1309;61403;-82
2022/08/16 07:40:15;;;;;;;10.50;6.00;;;;;;;28.84;43.77;100116.13;104348;1309;62366;-82
2022/08/16 07:42:41;;;;;;;8.20;5.30;;;;;;;28.84;43.64;100115.52;104383;1309;61281;-82
2022/08/16 07:45:07;;;;;;;7.50;5.20;;;;;;;28.85;43.69;100114.87;104471;1309;61259;-82
2022/08/16 07:47:32;;;;;;;7.30;5.50;;;;;;;28.86;43.62;100115.34;104406;1309;59429;-82
2022/08/16 07:49:59;;;;;;;7.10;5.80;;;;;;;28.86;43.53;100114.74;104377;1307;61291;-82
2022/08/16 07:52:25;;;;;;;8.40;5.50;;;;;;;28.87;43.53;100113.23;104256;1308;61372;-82
2022/08/16 07:54:51;;;;;;;8.30;5.60;;;;;;;28.87;43.29;100116.08;105396;1308;59089;-82
2022/08/16 07:57:16;;;;;;;8.60;5.50;;;;;;;28.88;43.44;100118.55;104998;1309;61316;-82
2022/08/16 07:59:45;;;;;;;8.20;5.70;;;;;;;28.89;43.25;100112.93;104390;1309;61336;-81
2022/08/16 08:02:12;;;;;;;8.60;5.70;;;;;;;28.90;43.13;100114.09;104392;1309;61741;-82
2022/08/16 08:04:37;;;;;;;8.00;5.30;;;;;;;28.91;42.98;100111.50;104442;1309;75811;-81
2022/08/16 08:07:03;;;;;;;7.00;5.80;;;;;;;28.91;43.20;100107.80;104430;1309;61426;-81
2022/08/16 08:09:28;;;;;;;9.20;5.90;;;;;;;28.91;42.78;100107.42;104381;1309;61235;-81
2022/08/16 08:11:54;;;;;;;7.30;5.40;;;;;;;28.92;42.94;100114.04;104332;1309;61457;-81
2022/08/16 08:14:20;;;;;;;11.20;5.90;;;;;;;28.92;43.07;100113.47;104269;1309;61304;-81
2022/08/16 08:16:45;;;;;;;6.40;5.20;;;;;;;28.93;43.02;100113.77;104406;1309;61357;-81
2022/08/16 08:19:11;;;;;;;9.80;5.80;;;;;;;28.93;42.90;100114.66;104439;1308;61412;-81
2022/08/16 08:21:39;;;;;;;8.00;5.40;;;;;;;28.94;43.04;100111.89;104451;1309;61254;-82
2022/08/16 08:24:06;;;;;;;9.10;5.90;;;;;;;28.94;43.00;100113.08;104374;1308;72904;-82
2022/08/16 08:26:33;;;;;;;7.60;5.50;;;;;;;28.94;42.79;100115.63;104426;1309;74538;-82
2022/08/16 08:28:59;;;;;;;7.60;5.80;;;;;;;28.95;42.79;100114.98;104277;1309;59312;-82
2022/08/16 08:31:25;;;;;;;7.20;5.40;;;;;;;28.95;42.84;100118.07;104404;1307;61333;-82
2022/08/16 08:33:52;;;;;;;6.10;5.00;;;;;;;28.95;42.69;100114.27;104408;1309;61533;-83
2022/08/16 08:36:28;;;;;;;6.70;5.00;;;;;;;28.96;42.91;100119.59;104282;1309;61370;-83
2022/08/16 08:38:54;;;;;;;6.90;5.30;;;;;;;28.97;42.82;100119.73;104471;1308;61438;-83
2022/08/16 08:41:19;;;;;;;10.60;6.00;;;;;;;28.96;42.70;100112.36;104418;1309;61349;-83
2022/08/16 08:43:46;;;;;;;7.90;5.80;;;;;;;28.97;42.89;100112.84;104467;1309;61277;-83
2022/08/16 08:46:11;;;;;;;10.60;6.30;;;;;;;28.97;42.82;100113.34;104378;1309;61227;-83
2022/08/16 08:48:37;;;;;;;8.50;5.30;;;;;;;28.97;42.58;100107.73;104502;1309;61229;-81
2022/08/16 08:51:04;;;;;;;8.60;5.70;;;;;;;28.96;42.45;100112.87;104377;1309;61705;-80
2022/08/16 08:53:31;;;;;;;9.00;6.00;;;;;;;28.97;42.48;100110.49;104369;1309;61285;-82
2022/08/16 08:55:58;;;;;;;8.00;6.10;;;;;;;28.97;42.36;100104.67;104364;1309;73877;-83
2022/08/16 08:58:24;;;;;;;7.50;5.30;;;;;;;28.97;42.35;100098.86;104365;1308;61406;-83
2022/08/16 09:00:50;;;;;;;7.60;5.80;;;;;;;28.97;42.52;100100.33;104398;1309;61291;-81
2022/08/16 09:03:15;;;;;;;6.70;5.60;;;;;;;28.97;42.39;100104.14;104238;1309;61313;-83
2022/08/16 09:05:41;;;;;;;6.80;5.80;;;;;;;28.97;42.32;100105.59;104306;1309;61248;-83
2022/08/16 09:08:08;;;;;;;6.40;5.50;;;;;;;28.97;42.26;100100.84;105391;1308;59504;-82
2022/08/16 09:10:34;;;;;;;6.10;5.20;;;;;;;28.98;42.40;100099.30;104273;1309;61781;-82
2022/08/16 09:12:59;;;;;;;6.90;5.70;;;;;;;28.98;42.54;100094.55;104438;1308;61190;-82
2022/08/16 09:15:25;;;;;;;6.50;4.70;;;;;;;28.98;42.54;100089.13;104526;1309;61397;-82
2022/08/16 09:17:54;;;;;;;7.30;5.50;;;;;;;28.98;42.58;100089.08;104450;1309;61710;-82
2022/08/16 09:20:22;;;;;;;7.30;5.70;;;;;;;28.98;42.61;100083.71;104546;1308;75893;-82
2022/08/16 09:22:49;;;;;;;6.50;5.40;;;;;;;28.98;42.61;100091.83;104397;1309;61164;-81
2022/08/16 09:25:14;;;;;;;7.30;5.10;;;;;;;28.98;42.79;100097.30;104356;1308;61173;-82
2022/08/16 09:27:41;;;;;;;8.80;6.30;;;;;;;28.97;42.66;100091.39;104272;1307;61873;-83
2022/08/16 09:30:08;;;;;;;7.80;5.50;;;;;;;28.97;42.76;100092.87;104380;1309;61288;-83
2022/08/16 09:32:34;;;;;;;7.30;5.60;;;;;;;28.97;42.71;100092.11;104371;1309;61049;-83
2022/08/16 09:35:01;;;;;;;7.60;5.80;;;;;;;28.97;42.61;100096.16;104389;1309;61253;-83
2022/08/16 09:37:29;;;;;;;8.30;6.50;;;;;;;28.97;42.60;100093.73;104417;1307;61228;-81
2022/08/16 09:39:56;;;;;;;6.50;5.50;;;;;;;28.97;42.44;100095.02;104295;1309;75920;-81
2022/08/16 09:42:21;;;;;;;8.50;5.40;;;;;;;28.97;42.61;100095.94;104250;1310;61416;-81
2022/08/16 09:44:47;;;;;;;7.80;6.20;;;;;;;28.97;42.38;100095.20;104399;1308;59467;-82
2022/08/16 09:47:13;;;;;;;10.00;5.60;;;;;;;28.97;42.32;100103.31;104332;1309;61330;-81
2022/08/16 09:49:39;;;;;;;9.90;5.80;;;;;;;28.97;42.32;100101.85;104398;1309;61323;-81
2022/08/16 09:52:05;;;;;;;7.30;5.80;;;;;;;28.98;42.23;100100.77;104293;1307;61330;-81
2022/08/16 09:54:31;;;;;;;7.40;5.60;;;;;;;28.98;42.27;100096.38;104434;1309;61376;-81
2022/08/16 09:56:56;;;;;;;8.10;5.60;;;;;;;28.98;42.09;100094.39;104384;1309;61384;-81
2022/08/16 09:59:23;;;;;;;7.00;5.70;;;;;;;28.98;42.13;100090.59;104393;1309;72705;-81
2022/08/16 10:01:49;;;;;;;7.80;5.80;;;;;;;28.98;42.29;100085.11;104434;1309;61166;-83
2022/08/16 10:04:16;;;;;;;13.10;6.20;;;;;;;28.98;42.15;100084.27;104352;1309;61207;-84
2022/08/16 10:06:43;;;;;;;9.40;5.90;;;;;;;28.97;42.21;100086.34;104501;1307;61272;-84
2022/08/16 10:09:09;;;;;;;8.00;5.80;;;;;;;28.98;42.10;100088.81;104221;1309;71885;-84
2022/08/16 10:14:21;;;;;;;7.60;5.50;;;;;;;28.97;42.17;100085.21;104254;1308;60870;-81
2022/08/16 10:16:47;;;;;;;7.80;5.90;;;;;;;28.97;42.26;100083.95;104339;1309;61089;-81
2022/08/16 10:19:14;;;;;;;8.40;5.80;;;;;;;28.98;42.03;100085.90;104141;1308;72656;-81
2022/08/16 10:21:40;;;;;;;7.80;6.10;;;;;;;28.98;41.80;100087.28;105082;1308;75066;-81
2022/08/16 10:24:06;;;;;;;6.30;5.00;;;;;;;28.99;42.01;100079.77;104274;1309;61310;-81
2022/08/16 10:26:32;;;;;;;9.50;5.80;;;;;;;28.99;42.17;100081.36;104276;1309;61339;-81
2022/08/16 10:28:58;;;;;;;9.50;5.70;;;;;;;29.00;42.25;100079.83;104411;1308;61264;-80
2022/08/16 10:31:25;;;;;;;8.20;5.90;;;;;;;29.00;41.99;100074.33;104255;1309;59942;-80
2022/08/16 10:33:51;;;;;;;7.50;6.00;;;;;;;29.01;41.93;100073.05;104407;1306;61419;-81
2022/08/16 10:36:16;;;;;;;8.60;5.80;;;;;;;29.01;41.91;100070.48;104408;1309;61274;-80
2022/08/16 10:38:42;;;;;;;8.80;6.10;;;;;;;29.01;42.04;100064.98;104401;1309;61291;-80
2022/08/16 10:41:09;;;;;;;8.60;5.90;;;;;;;29.01;41.71;100063.92;104299;1309;61263;-80
2022/08/16 10:43:35;;;;;;;7.10;5.90;;;;;;;29.01;41.75;100057.79;104224;1309;61233;-80
2022/08/16 10:46:02;;;;;;;8.40;6.30;;;;;;;29.01;41.65;100055.06;104363;1309;61400;-80
2022/08/16 10:48:29;;;;;;;6.60;5.40;;;;;;;29.01;41.75;100055.83;104358;1309;61882;-80
2022/08/16 10:50:57;;;;;;;7.40;5.60;;;;;;;29.01;41.81;100059.80;104410;1308;72947;-80
2022/08/16 10:53:25;;;;;;;7.30;6.00;;;;;;;29.01;41.87;100063.71;104302;1308;75955;-80
2022/08/16 10:55:50;;;;;;;8.00;5.80;;;;;;;29.01;41.63;100059.29;104401;1308;61259;-81
2022/08/16 10:58:16;;;;;;;8.10;5.70;;;;;;;29.01;41.66;100057.96;104424;1309;61306;-81
2022/08/16 11:00:42;;;;;;;7.70;5.80;;;;;;;29.01;41.63;100054.73;104245;1309;61246;-81
2022/08/16 11:03:08;;;;;;;8.80;5.70;;;;;;;29.01;41.56;100044.58;105409;1309;59448;-81
2022/08/16 11:05:35;;;;;;;6.60;5.40;;;;;;;29.01;41.66;100043.14;105422;1308;59091;-82
2022/08/16 11:08:01;;;;;;;8.00;5.80;;;;;;;29.02;41.75;100043.96;105017;1309;61304;-81
2022/08/16 11:10:29;;;;;;;6.80;5.60;;;;;;;29.03;41.68;100039.10;104445;1309;61439;-82
2022/08/16 11:12:55;;;;;;;6.70;5.60;;;;;;;29.04;41.75;100037.56;104407;1309;61273;-81
2022/08/16 11:15:21;;;;;;;7.10;5.70;;;;;;;29.04;41.95;100037.70;104363;1309;61412;-81